createdAt,value
2022-09-04T00:00:10.387Z,4.27
2022-09-04T00:03:03.628Z,3.47
2022-09-04T00:05:37.659Z,3.03
2022-09-04T00:08:29.741Z,2.90
2022-09-04T00:11:03.703Z,3.40
2022-09-04T00:13:37.557Z,3.23
2022-09-04T00:16:12.040Z,3.10
2022-09-04T00:18:45.714Z,3.20
2022-09-04T00:21:20.389Z,3.23
2022-09-04T00:23:54.989Z,2.87
2022-09-04T00:26:37.034Z,3.50
2022-09-04T00:29:11.151Z,2.50
2022-09-04T00:31:45.691Z,2.80
2022-09-04T00:34:21.266Z,2.90
2022-09-04T00:36:55.173Z,2.60
2022-09-04T00:39:29.209Z,2.60
2022-09-04T00:42:06.366Z,2.40
2022-09-04T00:44:48.473Z,2.13
2022-09-04T00:47:51.689Z,3.03
2022-09-04T00:50:47.997Z,2.40
2022-09-04T00:53:48.883Z,2.07
2022-09-04T00:56:31.043Z,2.23
2022-09-04T00:59:10.173Z,3.03
2022-09-04T01:01:41.326Z,2.20
2022-09-04T01:07:30.600Z,2.37
2022-09-04T01:10:19.743Z,2.33
2022-09-04T01:12:55.075Z,2.23
2022-09-04T01:15:29.479Z,2.33
2022-09-04T01:18:06.702Z,2.60
2022-09-04T01:20:51.422Z,2.80
2022-09-04T01:23:56.394Z,3.33
2022-09-04T01:26:31.553Z,2.87
2022-09-04T01:29:10.200Z,3.00
2022-09-04T01:31:44.701Z,2.63
2022-09-04T01:34:33.124Z,3.20
2022-09-04T01:37:07.660Z,2.90
2022-09-04T01:39:41.047Z,2.90
2022-09-04T01:42:17.217Z,2.53
2022-09-04T01:44:49.087Z,2.60
2022-09-04T01:47:22.742Z,3.20
2022-09-04T01:49:57.457Z,2.90
2022-09-04T01:52:40.429Z,2.90
2022-09-04T01:55:16.182Z,2.93
2022-09-04T01:58:09.017Z,2.83
2022-09-04T02:00:43.582Z,3.07
2022-09-04T02:03:21.338Z,3.10
2022-09-04T02:05:59.487Z,2.40
2022-09-04T02:08:41.300Z,2.47
2022-09-04T02:11:15.795Z,2.47
2022-09-04T02:13:55.830Z,2.20
2022-09-04T02:16:31.281Z,2.60
2022-09-04T02:19:04.941Z,2.50
2022-09-04T02:21:38.998Z,2.33
2022-09-04T02:24:13.910Z,2.67
2022-09-04T02:26:48.202Z,2.57
2022-09-04T02:29:23.790Z,2.00
2022-09-04T02:31:58.410Z,2.37
2022-09-04T02:34:33.137Z,2.70
2022-09-04T02:37:07.258Z,2.10
2022-09-04T02:39:44.186Z,2.20
2022-09-04T02:42:19.823Z,2.30
2022-09-04T02:44:53.618Z,1.97
2022-09-04T02:47:29.229Z,2.23
2022-09-04T02:50:05.578Z,2.50
2022-09-04T02:53:02.143Z,2.40
2022-09-04T02:55:39.642Z,2.17
2022-09-04T02:58:16.384Z,2.30
2022-09-04T03:00:51.408Z,2.30
2022-09-04T03:03:25.110Z,2.10
2022-09-04T03:06:01.793Z,2.47
2022-09-04T03:08:36.805Z,3.17
2022-09-04T03:11:11.666Z,2.80
2022-09-04T03:13:46.537Z,2.30
2022-09-04T03:16:21.015Z,3.00
2022-09-04T03:19:12.045Z,2.40
2022-09-04T03:21:48.205Z,2.47
2022-09-04T03:24:24.134Z,2.40
2022-09-04T03:26:57.710Z,2.50
2022-09-04T03:29:34.277Z,2.07
2022-09-04T03:32:16.332Z,2.20
2022-09-04T03:34:52.343Z,2.20
2022-09-04T03:37:52.494Z,1.93
2022-09-04T03:40:30.152Z,1.87
2022-09-04T03:43:24.048Z,2.27
2022-09-04T03:45:58.758Z,2.10
2022-09-04T03:48:43.701Z,2.20
2022-09-04T03:51:20.876Z,2.27
2022-09-04T03:53:56.457Z,2.50
2022-09-04T03:56:53.392Z,2.53
2022-09-04T03:59:32.664Z,2.50
2022-09-04T04:02:06.853Z,2.47
2022-09-04T04:05:11.622Z,2.87
2022-09-04T04:07:47.382Z,2.30
2022-09-04T04:10:27.565Z,2.67
2022-09-04T04:13:09.573Z,2.53
2022-09-04T04:15:50.672Z,2.70
2022-09-04T04:18:48.757Z,2.90
2022-09-04T04:21:27.882Z,2.27
2022-09-04T04:27:44.638Z,2.67
2022-09-04T04:30:18.065Z,3.27
2022-09-04T04:35:55.771Z,3.03
2022-09-04T04:38:40.310Z,2.40
2022-09-04T04:41:35.140Z,2.40
2022-09-04T04:44:13.750Z,2.43
2022-09-04T04:46:52.481Z,2.50
2022-09-04T04:49:35.158Z,2.83
2022-09-04T04:55:17.879Z,2.60
2022-09-04T04:57:56.030Z,2.97
2022-09-04T05:00:31.107Z,2.70
2022-09-04T05:03:06.387Z,2.83
2022-09-04T05:05:58.894Z,2.63
2022-09-04T05:08:35.903Z,2.40
2022-09-04T05:11:11.013Z,3.00
2022-09-04T05:13:48.567Z,2.57
2022-09-04T05:16:24.617Z,3.00
2022-09-04T05:18:58.936Z,2.37
2022-09-04T05:21:34.990Z,2.90
2022-09-04T05:24:08.880Z,2.60
2022-09-04T05:26:43.196Z,3.30
2022-09-04T05:29:17.297Z,2.27
2022-09-04T05:31:52.526Z,2.97
2022-09-04T05:34:30.181Z,3.07
2022-09-04T05:37:07.105Z,3.03
2022-09-04T05:39:43.220Z,2.90
2022-09-04T05:42:25.366Z,2.80
2022-09-04T05:47:44.862Z,2.83
2022-09-04T05:50:27.340Z,2.53
2022-09-04T05:53:16.072Z,2.57
2022-09-04T05:55:59.802Z,2.67
2022-09-04T05:58:38.619Z,2.70
2022-09-04T06:01:15.681Z,2.83
2022-09-04T06:03:58.489Z,3.87
2022-09-04T06:06:32.766Z,2.40
2022-09-04T06:09:16.355Z,2.53
2022-09-04T06:11:59.242Z,3.23
2022-09-04T06:15:03.601Z,2.93
2022-09-04T06:17:46.190Z,3.00
2022-09-04T06:20:24.539Z,3.17
2022-09-04T06:23:10.256Z,3.17
2022-09-04T06:29:06.321Z,2.67
2022-09-04T06:32:07.568Z,3.03
2022-09-04T06:35:14.560Z,3.10
2022-09-04T06:37:50.580Z,2.80
2022-09-04T06:40:33.523Z,2.70
2022-09-04T06:43:12.009Z,2.90
2022-09-04T06:45:56.787Z,3.20
2022-09-04T06:48:31.738Z,2.93
2022-09-04T06:51:09.296Z,2.43
2022-09-04T06:53:45.809Z,3.10
2022-09-04T06:56:28.983Z,3.13
2022-09-04T07:02:24.026Z,3.20
2022-09-04T07:05:04.318Z,3.23
2022-09-04T07:07:39.402Z,3.87
2022-09-04T07:10:13.057Z,2.83
2022-09-04T07:13:01.865Z,3.90
2022-09-04T07:16:02.175Z,3.40
2022-09-04T07:18:42.093Z,3.70
2022-09-04T07:21:17.789Z,3.37
2022-09-04T07:23:52.531Z,3.50
2022-09-04T07:26:28.655Z,3.83
2022-09-04T07:29:35.969Z,3.83
2022-09-04T07:34:50.648Z,3.67
2022-09-04T07:37:27.466Z,3.47
2022-09-04T07:40:08.159Z,3.50
2022-09-04T07:42:42.452Z,4.10
2022-09-04T07:45:20.872Z,3.33
2022-09-04T07:47:58.061Z,3.70
2022-09-04T07:50:33.159Z,3.83
2022-09-04T07:53:17.053Z,3.87
2022-09-04T07:55:49.807Z,4.30
2022-09-04T07:58:32.346Z,4.27
2022-09-04T08:01:13.258Z,4.00
2022-09-04T08:06:33.999Z,4.13
2022-09-04T08:09:15.728Z,4.50
2022-09-04T08:15:09.892Z,4.00
2022-09-04T08:18:07.180Z,3.97
2022-09-04T08:20:44.264Z,3.83
2022-09-04T08:23:32.669Z,3.67
2022-09-04T08:26:10.204Z,3.90
2022-09-04T08:28:49.936Z,3.87
2022-09-04T08:31:24.626Z,3.20
2022-09-04T08:34:04.047Z,3.03
2022-09-04T08:36:39.275Z,2.77
2022-09-04T08:39:13.174Z,2.90
2022-09-04T08:41:59.340Z,2.80
2022-09-04T08:45:12.095Z,2.93
2022-09-04T08:48:12.604Z,2.80
2022-09-04T08:51:20.050Z,2.67
2022-09-04T08:54:25.538Z,2.60
2022-09-04T08:57:08.590Z,2.30
2022-09-04T09:00:08.806Z,2.90
2022-09-04T09:03:05.278Z,2.37
2022-09-04T09:06:14.871Z,2.47
2022-09-04T09:09:16.197Z,2.00
2022-09-04T09:12:25.725Z,2.30
2022-09-04T09:15:19.499Z,2.27
2022-09-04T09:18:01.412Z,2.50
2022-09-04T09:20:34.624Z,2.60
2022-09-04T09:23:23.616Z,2.57
2022-09-04T09:26:19.367Z,2.30
2022-09-04T09:29:45.180Z,2.13
2022-09-04T09:36:03.083Z,2.60
2022-09-04T09:39:13.140Z,2.23
2022-09-04T09:42:14.270Z,2.33
2022-09-04T09:45:12.107Z,2.60
2022-09-04T09:48:24.641Z,3.33
2022-09-04T09:51:25.886Z,2.37
2022-09-04T09:54:52.131Z,2.13
2022-09-04T09:57:59.345Z,2.27
2022-09-04T10:00:33.437Z,2.35
2022-09-04T10:03:42.930Z,2.22
2022-09-04T10:06:35.442Z,2.60
2022-09-04T10:09:56.628Z,2.10
2022-09-04T10:12:50.346Z,2.23
2022-09-04T10:15:45.632Z,2.23
2022-09-04T10:18:43.475Z,2.05
2022-09-04T10:24:58.535Z,2.27
2022-09-04T10:30:46.741Z,2.08
2022-09-04T10:33:31.745Z,1.95
2022-09-04T10:36:16.654Z,2.33
2022-09-04T10:39:11.270Z,2.40
2022-09-04T10:42:15.125Z,2.10
2022-09-04T10:45:02.219Z,2.98
2022-09-04T10:47:46.623Z,2.17
2022-09-04T10:50:31.355Z,2.35
2022-09-04T10:53:14.319Z,2.50
2022-09-04T10:55:55.454Z,2.40
2022-09-04T10:58:40.054Z,2.30
2022-09-04T11:04:50.004Z,2.05
2022-09-04T11:07:34.173Z,1.85
2022-09-04T11:10:37.111Z,2.10
2022-09-04T11:16:43.922Z,2.05
2022-09-04T11:19:35.453Z,2.58
2022-09-04T11:22:51.335Z,2.08
2022-09-04T11:26:03.943Z,2.08
2022-09-04T11:28:50.618Z,1.95
2022-09-04T11:31:33.890Z,1.77
2022-09-04T11:34:42.035Z,2.12
2022-09-04T11:38:01.228Z,1.98
2022-09-04T11:40:57.794Z,1.95
2022-09-04T11:43:47.836Z,2.22
2022-09-04T11:46:46.553Z,2.05
2022-09-04T11:49:37.947Z,2.02
2022-09-04T11:52:18.648Z,2.35
2022-09-04T11:55:35.598Z,2.37
2022-09-04T11:59:01.700Z,2.25
2022-09-04T12:01:47.540Z,2.10
2022-09-04T12:04:37.685Z,2.00
2022-09-04T12:07:16.911Z,2.10
2022-09-04T12:09:58.366Z,2.37
2022-09-04T12:13:25.504Z,2.30
2022-09-04T12:19:16.371Z,2.15
2022-09-04T12:22:24.087Z,3.05
2022-09-04T12:28:03.766Z,2.92
2022-09-04T12:30:38.780Z,2.45
2022-09-04T12:36:59.657Z,2.80
2022-09-04T12:39:47.199Z,2.52
2022-09-04T12:42:20.997Z,2.77
2022-09-04T12:44:58.177Z,2.08
2022-09-04T12:47:35.524Z,2.72
2022-09-04T12:50:21.229Z,2.37
2022-09-04T12:53:09.474Z,2.52
2022-09-04T12:55:46.005Z,2.30
2022-09-04T12:58:24.354Z,3.10
2022-09-04T13:00:59.293Z,1.82
2022-09-04T13:03:33.988Z,2.10
2022-09-04T13:08:55.373Z,2.87
2022-09-04T13:11:33.661Z,2.05
2022-09-04T13:14:12.715Z,2.65
2022-09-04T13:16:46.636Z,2.25
2022-09-04T13:19:20.537Z,2.98
2022-09-04T13:22:21.930Z,2.12
2022-09-04T13:24:58.044Z,2.22
2022-09-04T13:27:48.378Z,3.58
2022-09-04T13:30:25.807Z,2.40
2022-09-04T13:33:14.014Z,2.67
2022-09-04T13:35:59.973Z,2.62
2022-09-04T13:39:29.073Z,2.45
2022-09-04T13:42:22.201Z,2.27
2022-09-04T13:45:09.906Z,1.70
2022-09-04T13:47:49.909Z,1.80
2022-09-04T13:50:26.088Z,1.77
2022-09-04T13:53:02.081Z,1.47
2022-09-04T13:55:36.544Z,2.22
2022-09-04T13:58:11.733Z,1.77
2022-09-04T14:03:34.718Z,1.82
2022-09-04T14:06:08.879Z,1.65
2022-09-04T14:08:40.143Z,1.75
2022-09-04T14:11:54.118Z,2.12
2022-09-04T14:14:55.068Z,1.75
2022-09-04T14:17:28.960Z,1.52
2022-09-04T14:20:03.383Z,1.87
2022-09-04T14:22:41.437Z,1.77
2022-09-04T14:25:17.510Z,1.87
2022-09-04T14:27:53.624Z,1.85
2022-09-04T14:30:25.960Z,2.08
2022-09-04T14:33:19.265Z,1.75
2022-09-04T14:38:49.810Z,2.25
2022-09-04T14:41:32.824Z,1.60
2022-09-04T14:44:08.682Z,1.47
2022-09-04T14:46:46.512Z,1.98
2022-09-04T14:49:21.584Z,2.37
2022-09-04T14:51:55.880Z,1.72
2022-09-04T14:54:33.355Z,1.65
2022-09-04T14:57:07.024Z,2.00
2022-09-04T14:59:41.697Z,2.05
2022-09-04T15:02:24.368Z,1.70
2022-09-04T15:05:20.883Z,1.92
2022-09-04T15:07:55.152Z,1.67
2022-09-04T15:10:30.169Z,1.92
2022-09-04T15:13:22.630Z,2.17
2022-09-04T15:15:56.738Z,1.45
2022-09-04T15:18:30.551Z,2.87
2022-09-04T15:23:44.828Z,2.10
2022-09-04T15:29:02.669Z,1.90
2022-09-04T15:31:38.526Z,1.40
2022-09-04T15:34:12.408Z,1.62
2022-09-04T15:36:44.558Z,1.72
2022-09-04T15:39:18.627Z,1.62
2022-09-04T15:41:50.999Z,1.82
2022-09-04T15:44:29.181Z,1.75
2022-09-04T15:47:03.048Z,1.95
2022-09-04T15:49:42.517Z,1.45
2022-09-04T15:52:25.659Z,1.50
2022-09-04T15:55:07.441Z,1.82
2022-09-04T15:57:50.605Z,1.85
2022-09-04T16:00:26.558Z,1.70
2022-09-04T16:03:00.518Z,1.70
2022-09-04T16:05:37.577Z,1.70
2022-09-04T16:08:16.607Z,1.42
2022-09-04T16:10:53.504Z,1.50
2022-09-04T16:16:28.552Z,1.40
2022-09-04T16:19:07.317Z,1.50
2022-09-04T16:21:45.601Z,1.35
2022-09-04T16:24:19.226Z,1.17
2022-09-04T16:26:54.501Z,1.45
2022-09-04T16:29:33.314Z,1.47
2022-09-04T16:32:06.725Z,1.62
2022-09-04T16:34:41.301Z,1.62
2022-09-04T16:40:03.225Z,1.62
2022-09-04T16:42:40.113Z,1.50
2022-09-04T16:45:14.554Z,1.40
2022-09-04T16:47:49.019Z,1.42
2022-09-04T16:50:25.298Z,1.55
2022-09-04T16:53:13.409Z,1.60
2022-09-04T16:55:44.595Z,1.37
2022-09-04T16:58:33.941Z,1.40
2022-09-04T17:01:13.679Z,1.70
2022-09-04T17:03:43.196Z,2.00
2022-09-04T17:06:22.840Z,1.70
2022-09-04T17:08:57.833Z,1.75
2022-09-04T17:11:34.025Z,1.92
2022-09-04T17:14:09.206Z,1.77
2022-09-04T17:16:44.055Z,1.90
2022-09-04T17:19:17.267Z,1.55
2022-09-04T17:29:03.858Z,1.72
2022-09-04T17:29:10.938Z,1.47
2022-09-04T17:29:12.276Z,1.27
2022-09-04T17:30:05.556Z,1.27
2022-09-04T17:36:56.777Z,1.42
2022-09-04T17:40:37.987Z,1.70
2022-09-04T17:40:55.438Z,1.50
2022-09-04T17:43:23.611Z,1.50
2022-09-04T17:48:33.577Z,1.47
2022-09-04T17:51:07.527Z,1.90
2022-09-04T17:56:21.559Z,2.02
2022-09-04T17:58:55.962Z,1.87
2022-09-04T18:01:30.799Z,1.52
2022-09-04T18:04:22.452Z,2.02
2022-09-04T18:06:58.582Z,1.60
2022-09-04T18:09:34.614Z,1.90
2022-09-04T18:12:11.721Z,1.80
2022-09-04T18:15:12.873Z,1.87
2022-09-04T18:17:28.882Z,1.85
2022-09-04T18:20:08.353Z,1.60
2022-09-04T18:23:20.552Z,1.50
2022-09-04T18:25:54.819Z,1.45
2022-09-04T18:28:28.908Z,1.70
2022-09-04T18:37:22.080Z,1.83
2022-09-04T18:37:26.213Z,1.80
2022-09-04T18:39:28.179Z,1.50
2022-09-04T18:50:23.163Z,1.80
2022-09-04T18:50:24.772Z,2.12
2022-09-04T18:50:28.628Z,2.20
2022-09-04T18:51:13.981Z,2.00
2022-09-04T18:53:26.127Z,1.60
2022-09-04T18:55:59.911Z,1.60
2022-09-04T18:58:51.213Z,1.70
2022-09-04T19:01:27.387Z,1.90
2022-09-04T19:04:00.757Z,1.70
2022-09-04T19:06:37.129Z,1.93
2022-09-04T19:09:14.733Z,2.00
2022-09-04T19:11:49.182Z,2.03
2022-09-04T19:14:24.222Z,2.10
2022-09-04T19:16:58.604Z,2.00
2022-09-04T19:19:33.620Z,2.43
2022-09-04T19:24:52.796Z,2.20
2022-09-04T19:27:31.489Z,1.70
2022-09-04T19:32:48.674Z,2.10
2022-09-04T19:35:22.524Z,1.80
2022-09-04T19:41:42.972Z,2.10
2022-09-04T19:46:06.215Z,1.83
2022-09-04T19:46:17.788Z,2.07
2022-09-04T19:48:32.769Z,2.37
2022-09-04T19:53:35.189Z,1.80
2022-09-04T19:53:49.403Z,2.07
2022-09-04T19:56:27.171Z,1.60
2022-09-04T19:59:07.957Z,2.37
2022-09-04T20:01:48.549Z,1.80
2022-09-04T20:04:30.754Z,2.10
2022-09-04T20:07:05.230Z,1.90
2022-09-04T20:09:39.750Z,1.90
2022-09-04T20:12:18.290Z,2.33
2022-09-04T20:14:54.271Z,2.10
2022-09-04T20:17:33.704Z,2.10
2022-09-04T20:20:07.353Z,1.90
2022-09-04T20:22:42.903Z,2.07
2022-09-04T20:25:26.124Z,2.23
2022-09-04T20:28:00.498Z,1.87
2022-09-04T20:30:33.502Z,1.90
2022-09-04T20:33:07.141Z,1.77
2022-09-04T20:35:41.563Z,2.10
2022-09-04T20:38:23.009Z,1.93
2022-09-04T20:40:58.471Z,1.93
2022-09-04T20:43:32.684Z,1.60
2022-09-04T20:52:40.516Z,2.03
2022-09-04T20:52:54.192Z,2.27
2022-09-04T20:53:00.569Z,2.23
2022-09-04T20:54:17.527Z,2.27
2022-09-04T21:00:04.050Z,2.17
2022-09-04T21:03:10.002Z,2.10
2022-09-04T21:03:20.720Z,2.10
2022-09-04T21:04:48.776Z,2.60
2022-09-04T21:07:25.411Z,2.30
2022-09-04T21:10:10.127Z,2.03
2022-09-04T21:12:41.909Z,2.10
2022-09-04T21:15:16.675Z,2.30
2022-09-04T21:18:17.991Z,1.90
2022-09-04T21:21:17.344Z,1.87
2022-09-04T21:24:12.439Z,2.90
2022-09-04T21:26:53.423Z,2.17
2022-09-04T21:29:44.583Z,2.17
2022-09-04T21:32:31.937Z,1.90
2022-09-04T21:35:09.289Z,1.93
2022-09-04T21:37:47.603Z,2.17
2022-09-04T21:41:08.039Z,1.80
2022-09-04T21:47:08.861Z,1.93
2022-09-04T21:49:55.720Z,2.07
2022-09-04T21:52:47.684Z,2.53
2022-09-04T21:58:37.161Z,2.03
2022-09-04T22:02:36.514Z,2.13
2022-09-04T22:02:40.620Z,2.37
2022-09-04T22:03:57.401Z,2.43
2022-09-04T22:07:08.376Z,2.23
2022-09-04T22:13:30.138Z,2.30
2022-09-04T22:13:40.851Z,2.20
2022-09-04T22:14:30.941Z,2.43
2022-09-04T22:17:17.771Z,2.50
2022-09-04T22:20:13.932Z,2.37
2022-09-04T22:23:21.818Z,2.43
2022-09-04T22:26:22.997Z,2.60
2022-09-04T22:28:54.916Z,2.30
2022-09-04T22:32:24.225Z,3.20
2022-09-04T22:38:28.565Z,2.27
2022-09-04T22:41:06.460Z,2.70
2022-09-04T22:43:45.363Z,2.30
2022-09-04T22:46:29.828Z,2.10
2022-09-04T22:49:27.365Z,3.23
2022-09-04T22:52:23.798Z,3.17
2022-09-04T22:55:12.900Z,2.50
2022-09-04T22:57:44.873Z,2.80
2022-09-04T23:00:14.592Z,2.83
2022-09-04T23:03:21.573Z,2.67
2022-09-04T23:08:26.005Z,2.77
2022-09-04T23:13:43.768Z,2.63
2022-09-04T23:14:00.082Z,3.67
2022-09-04T23:15:07.992Z,3.20
2022-09-04T23:17:59.942Z,3.40
2022-09-04T23:26:31.287Z,3.00
2022-09-04T23:26:47.007Z,3.60
2022-09-04T23:26:48.845Z,3.50
2022-09-04T23:28:51.715Z,3.10
2022-09-04T23:31:33.616Z,3.47
2022-09-04T23:34:31.442Z,3.70
2022-09-04T23:37:34.904Z,3.00
2022-09-04T23:43:35.872Z,3.73
2022-09-04T23:46:35.357Z,3.63
2022-09-04T23:49:42.781Z,3.60
2022-09-04T23:52:18.636Z,3.77
2022-09-04T23:55:06.677Z,3.27
2022-09-04T23:57:43.388Z,3.33
